Tiempo atmosférico en la estación meteorológica de Cuéllar, Segovia (795 m.)



Fecha
DESCASC
Temp. máxima en grados centígrados (hora)
DESCASC
Temp. mínima en grados centígrados (hora)
DESCASC
Temp. media en grados centígrados
DESCASC
Racha de viento máxima en m/sg (hora)
DESCASC
Velocidad máxima media en intervalos de 10 minutos(hora)
DESCASC
Precipitaciones diarias en mm
DESCASC
Precipitaciones de 00:00 a 06:00 en mm
DESCASC
Precipitaciones de 06:00 a 12:00 en mm
DESCASC
Precipitaciones de 12:00 a 18:00 en mm
DESCASC
Precipitaciones de 18:00 a 24:00 en mm
DESCASC
18-01-2018 16.4 (15:50) -5.7 (07:20) 5.3 3.06 (16:30) 1.94 (21:50) 0 0 0 0 0
17-01-2018 14 (17:10) -2.9 (23:59) 5.5 8.33 (01:10) 4.44 (01:10) 0 0 0 0 0
16-01-2018 10.9 (14:50) 4.9 (02:50) 7.9 8.33 (15:10) 5.28 (15:00) 0 0 0 0 0
15-01-2018 8.1 (16:20) -5.6 (03:40) 1.3 7.22 (23:30) 3.61 (23:30) 0.2 0 0.2 0 0
14-01-2018 3.9 (16:50) -3.5 (-00:0) 0.2 6.67 (04:50) 3.61 (04:50) 0.8 0.8 0 0 0
13-01-2018 3.8 (12:10) -2.8 (-00:0) 0.5 7.5 (19:00) 4.17 (19:20) 4.6 0 0 4.4 0.2
12-01-2018 9.3 (14:20) -3.2 (-00:0) 3.1 3.89 (15:10) 2.22 (17:00) 0 0 0 0 0
11-01-2018 7.6 (16:30) -0.5 (-00:0) 3.5 10 (14:50) 5.83 (13:40) 0 0 0 0 0
10-01-2018 7 (15:30) 0.5 (00:00) 3.8 17.22 (18:30) 8.06 (18:30) 1.6 0.6 0 0.4 0.6
09-01-2018 3.2 (15:00) -9.9 (-00:0) -3.3 3.06 (10:50) 2.22 (03:10) 3.2 0 0 1 2.2
08-01-2018 5.5 (16:20) -8.5 (-00:0) -1.5 6.67 (00:10) 5 (07:10) 0 0 0 0 0
07-01-2018 2.4 (12:10) -3 (-00:0) -0.3 9.17 (07:00) 6.94 (23:40) 15.8 4.6 6.8 4.4 0
06-01-2018 3.1 (00:00) 0.2 (00:00) 1.6 10.56 (14:30) 7.5 (14:30) 11.2 2.6 2 2.8 3.8
05-01-2018 9.9 (00:00) 3.1 (00:00) 6.5 13.33 (12:20) 7.22 (12:20) 14.8 0 0 4.2 10.6
04-01-2018 11.8 (16:20) 9.9 (23:59) 10.8 11.67 (12:20) 5.28 (13:00) 0 0 0 0 0
03-01-2018 13.4 (14:40) 7.8 (00:00) 10.6 9.72 (16:30) 5.28 (16:20) 0 0 0 0 0
02-01-2018 10.1 (23:50) 5.4 (00:00) 7.8 10 (12:40) 5.56 (12:20) 0.4 0 0 0 0.4
01-01-2018 8 (19:40) -3.6 (-00:0) 2.2 13.33 (16:00) 6.11 (15:50) 0.2 0 0.2 0 0
31-12-2017 10.8 (14:00) -0.5 (-00:0) 5.2 19.72 (16:20) 9.17 (16:20) 2.4 0 0 2.2 0.2
30-12-2017 13.4 (16:40) 4.2 (00:00) 8.8 9.72 (12:40) 5.56 (12:40) 0 0 0 0 0
29-12-2017 13.1 (16:00) 4.2 (00:00) 8.7 10.28 (09:50) 5.56 (09:50) 0.6 0 0.6 0 0
28-12-2017 12.3 (15:40) 3.8 (00:00) 8.1 10.83 (11:40) 6.39 (11:50) 1 0.8 0.2 0 0
27-12-2017 7.2 (02:00) 2.4 (00:00) 4.8 16.67 (02:10) 8.89 (03:00) 4 3.4 0 0 0.6
26-12-2017 6.9 (23:20) 1.2 (00:00) 4.1 21.94 (23:30) 11.67 (23:30) 4 0 0 0.8 3.2
25-12-2017 12 (13:20) -7.4 (-00:0) 2.3 9.17 (15:20) 4.17 (13:40) 0.8 0 0 0 0.8
24-12-2017 14 (15:30) -6.4 (-00:0) 3.8 2.5 (16:30) 1.67 (16:30) 0.2 0 0.2 0 0

Gráficas

Temp. máximas Temp. mínimas Temp. medias Precipitaciones Rachas de viento máximas Velocidades máximas media en intervalos de 10 minutos

Datos horarios

Fecha y hora oficial Temperatura (ºC) Velocidad del viento (km/h) Dirección del viento Racha (km/h) Dirección de racha Precipitación (mm) Presión (hPa) Tendencia (hPa) Humedad (%)
2018-01-22 23:00:00 1.7 6 Este 14 Este 0 -- -- 98
2018-01-22 22:00:00 2.3 10 Nordeste 13 Nordeste 0 -- -- 100
2018-01-22 21:00:00 -0.3 3 Este 6 Nordeste 0 -- -- 97
2018-01-22 20:00:00 3.7 3 Este 7 Nordeste 0 -- -- 91
2018-01-22 19:00:00 4.9 2 Sur 8 Norte 0 -- -- 92
2018-01-22 18:00:00 10.2 5 Norte 8 Noroeste 0 -- -- 70
2018-01-22 17:00:00 12.2 6 Norte 12 Norte 0 -- -- 65
2018-01-22 16:00:00 13.3 3 Nordeste 12 Oeste 0 -- -- 63
2018-01-22 15:00:00 10.2 5 Sudoeste 22 Oeste 0 -- -- 74
2018-01-22 14:00:00 9.9 4 Oeste 22 Oeste 0 -- -- 77
2018-01-22 13:00:00 8.2 7 Oeste 19 Oeste 0 -- -- 83
2018-01-22 12:00:00 7.8 8 Sudoeste 18 Sur 0 -- -- 84
2018-01-22 11:00:00 7.2 5 Sudoeste 13 Sur 0 -- -- 89
2018-01-22 10:00:00 6.5 4 Sur 12 Sudoeste 0 -- -- 93
2018-01-22 09:00:00 6.4 7 Sur 12 Sudoeste 0 -- -- 94
2018-01-22 08:00:00 6.7 5 Sudoeste 12 Sudoeste 0 -- -- 94
2018-01-22 07:00:00 6.8 7 Sur 13 Sur 0 -- -- 94
2018-01-22 06:00:00 6.3 0 Calma 5 Sudoeste 0 -- -- 95
2018-01-22 05:00:00 6.3 0 Calma 2 Sudeste 0 -- -- 93
2018-01-22 04:00:00 6.5 3 Sur 9 Sur 0 -- -- 92
2018-01-22 03:00:00 6.7 5 Sur 13 Sur 0 -- -- 92
2018-01-22 02:00:00 6.9 5 Sudoeste 13 Sur 0 -- -- 91
2018-01-22 01:00:00 7.1 6 Sudoeste 14 Sur 0 -- -- 92
2018-01-22 00:00:00 7.2 7 Sudoeste 13 Sudoeste 0 -- -- 91
2018-01-21 23:00:00 7.2 7 Sur 11 Sur 0 -- -- 91
2018-01-21 22:00:00 7.2 5 Sur 15 Sur 0 -- -- 90
2018-01-21 21:00:00 7.4 9 Sur 13 Sur 0 -- -- 89
2018-01-21 20:00:00 7.6 5 Sudoeste 9 Oeste 0 -- -- 90
2018-01-21 19:00:00 8 4 Sudoeste 12 Sudoeste 0 -- -- 88
2018-01-21 18:00:00 8.5 5 Sudoeste 13 Sudoeste 0 -- -- 85
2018-01-21 17:00:00 9 7 Sudoeste 15 Sudoeste 0 -- -- 84
2018-01-21 16:00:00 9.3 8 Sudoeste 16 Sudoeste 0 -- -- 83
2018-01-21 15:00:00 9 8 Sudoeste 14 Oeste 0 -- -- 86
2018-01-21 14:00:00 8.2 8 Oeste 17 Oeste 0 -- -- 89
2018-01-21 13:00:00 7.4 7 Oeste 16 Sudoeste 0 -- -- 97
2018-01-21 12:00:00 6.6 6 Oeste 17 Sudoeste 0 -- -- 100
2018-01-21 11:00:00 5.9 6 Sudoeste 18 Sudoeste 0 -- -- 100
2018-01-21 10:00:00 5.5 6 Sudoeste 15 Sur 0 -- -- 100
2018-01-21 09:00:00 5.2 6 Sudoeste 18 Sudoeste 0 -- -- 100
2018-01-21 08:00:00 5.2 7 Sudoeste 17 Sudoeste 0 -- -- 99
2018-01-21 07:00:00 5.4 9 Sudoeste 22 Oeste 0 -- -- 98
2018-01-21 06:00:00 5.5 9 Oeste 17 Oeste 0 -- -- 97
2018-01-21 05:00:00 5.3 5 Oeste 11 Oeste 0 -- -- 97
2018-01-21 04:00:00 5.5 5 Oeste 10 Oeste 0 -- -- 96
2018-01-21 03:00:00 5 4 Oeste 7 Oeste 0 -- -- 97
2018-01-21 02:00:00 4.6 4 Oeste 10 Oeste 0 -- -- 97
2018-01-21 01:00:00 3.8 2 Noroeste 6 Oeste 0 -- -- 99
2018-01-21 00:00:00 2.6 3 Oeste 8 Sudoeste 0 -- -- 98
2018-01-20 23:00:00 2.4 4 Oeste 7 Oeste 0 -- -- 97
2018-01-20 22:00:00 2.9 3 Oeste 5 Noroeste 0 -- -- 96
2018-01-20 21:00:00 3.9 2 Oeste 5 Oeste 0 -- -- 91
2018-01-20 20:00:00 5.7 0 Calma 17 Oeste 0 -- -- 82
2018-01-20 19:00:00 8.9 9 Oeste 16 Oeste 0 -- -- 71
2018-01-20 18:00:00 10.6 8 Sudoeste 24 Oeste 0 -- -- 63
2018-01-20 17:00:00 12.8 15 Oeste 34 Oeste 0 -- -- 54
2018-01-20 16:00:00 13.5 15 Oeste 28 Oeste 0 -- -- 51
2018-01-20 15:00:00 12.7 12 Sudoeste 29 Sudoeste 0 -- -- 54
2018-01-20 14:00:00 11.7 13 Sudoeste 28 Oeste 0 -- -- 55
2018-01-20 13:00:00 9.1 18 Oeste 28 Oeste 0 -- -- 61
2018-01-20 12:00:00 7.2 12 Oeste 19 Oeste 0 -- -- 74
2018-01-20 11:00:00 3.5 3 Oeste 6 Oeste 0 -- -- 98
2018-01-20 10:00:00 0.2 2 Oeste 4 Oeste 0 -- -- 99
2018-01-20 09:00:00 -2.2 0 Calma 3 Sudeste 0 -- -- 100
2018-01-20 08:00:00 -0.4 0 Calma 3 Oeste 0 -- -- 100
2018-01-20 07:00:00 -0.3 0 Calma 2 Oeste 0 -- -- 100
2018-01-20 06:00:00 -0.9 0 Calma 2 Sudeste 0 -- -- 100
2018-01-20 05:00:00 -1.4 2 Oeste 4 Oeste 0 -- -- 100
2018-01-20 04:00:00 -3.9 0 Calma 2 Este 0 -- -- 99
2018-01-20 03:00:00 -3.9 0 Calma 3 Este 0 -- -- 98
2018-01-20 02:00:00 -3.4 2 Sudeste -- -- 0 -- -- 98
2018-01-20 01:00:00 -4 0 Calma 4 Sudeste 0 -- -- 97
2018-01-20 00:00:00 -2.7 3 Este 7 Sudeste 0 -- -- 98
2018-01-19 23:00:00 -3 4 Este 5 Este 0 -- -- 100
2018-01-19 22:00:00 -2.2 0 Calma 3 Este 0 -- -- 99
2018-01-19 21:00:00 -1.2 2 Sudeste 3 Este 0 -- -- 96
2018-01-19 20:00:00 1.1 2 Sudoeste 6 Noroeste 0 -- -- 87
2018-01-19 19:00:00 5.4 3 Noroeste 10 Oeste 0 -- -- 87
2018-01-19 18:00:00 9.8 7 Oeste 14 Oeste 0 -- -- 70
2018-01-19 17:00:00 12.5 6 Oeste 16 Oeste 0 -- -- 59
2018-01-19 16:00:00 12.2 7 Oeste 15 Oeste 0 -- -- 60
2018-01-19 15:00:00 11.6 7 Oeste 13 Oeste 0 -- -- 62
2018-01-19 14:00:00 10.5 8 Oeste 15 Oeste 0 -- -- 65
2018-01-19 13:00:00 10 4 Sudoeste 10 Oeste 0 -- -- 65
2018-01-19 12:00:00 6.9 4 Oeste 9 Oeste 0 -- -- 72
2018-01-19 11:00:00 4.7 2 Oeste 4 Oeste 0 -- -- 76
2018-01-19 10:00:00 1.3 0 Calma 7 Sudeste 0 -- -- 90
2018-01-19 09:00:00 -5.4 4 Este 10 Este 0 -- -- 98
2018-01-19 08:00:00 -5.5 6 Este 10 Sudeste 0 -- -- 97
2018-01-19 07:00:00 -5 0 Calma 3 Nordeste 0 -- -- 99
2018-01-19 06:00:00 -4.1 0 Calma 2 Sudeste 0 -- -- 99
2018-01-19 05:00:00 -4.1 4 Este 5 Este 0 -- -- 99
2018-01-19 04:00:00 -3.3 4 Este 7 Este 0 -- -- 100
2018-01-19 03:00:00 -4.4 5 Este 6 Este 0 -- -- 99
2018-01-19 02:00:00 -2.9 0 Calma 5 Este 0 -- -- 99
2018-01-19 01:00:00 -3.1 4 Este 7 Este 0 -- -- 99
2018-01-19 00:00:00 -2.2 4 Este 5 Este 0 -- -- 100
2018-01-18 23:00:00 -1.5 3 Sudeste 8 Este 0 -- -- 98
2018-01-18 22:00:00 -1.6 6 Este 10 Este 0 -- -- 98
2018-01-18 21:00:00 0.1 4 Este 6 Este 0 -- -- 96
2018-01-18 20:00:00 5.1 4 Este 8 Este 0 -- -- 81
2018-01-18 19:00:00 6.8 2 Sudoeste 5 Sur 0 -- -- 71
2018-01-18 18:00:00 11.4 4 Sudoeste 9 Sudoeste 0 -- -- 55
2018-01-18 17:00:00 15.4 2 Sur 11 Este 0 -- -- 47
2018-01-18 16:00:00 16 5 Norte 9 Norte 0 -- -- 47
2018-01-18 15:00:00 15.1 5 Norte 9 Norte 0 -- -- 47
2018-01-18 14:00:00 13.8 3 Oeste 8 Oeste 0 -- -- 48
2018-01-18 13:00:00 12.1 3 Norte 6 Noroeste 0 -- -- 56
2018-01-18 12:00:00 9.8 2 Sur 7 Norte 0 -- -- 67
2018-01-18 11:00:00 4.9 5 Este 8 Este 0 -- -- 81
2018-01-18 10:00:00 0.3 3 Este 6 Sudeste 0 -- -- 93
2018-01-18 09:00:00 -3.8 3 Sudeste 5 Este 0 -- -- 98
2018-01-18 08:00:00 -5 4 Este 7 Este 0 -- -- 98
2018-01-18 07:00:00 -4.9 3 Este 5 Sudeste 0 -- -- 98
2018-01-18 06:00:00 -4.2 3 Sudeste 6 Sudeste 0 -- -- 99
2018-01-18 05:00:00 -4.4 3 Sudeste 6 Este 0 -- -- 98
2018-01-18 04:00:00 -4.4 5 Este 6 Este 0 -- -- 99
2018-01-18 03:00:00 -3.8 4 Sudeste 6 Este 0 -- -- 99
2018-01-18 02:00:00 -3.7 3 Sudeste 8 Sudeste 0 -- -- 98
2018-01-18 01:00:00 -3.6 4 Este 6 Este 0 -- -- 98
2018-01-18 00:00:00 -2.9 2 Este 6 Sur 0 -- -- 98
2018-01-17 23:00:00 -2.5 4 Sudeste 8 Sudeste 0 -- -- 97
2018-01-17 22:00:00 -1.7 3 Nordeste 8 Sudeste 0 -- -- 99
2018-01-17 21:00:00 -0.1 2 Este 7 Nordeste 0 -- -- 95
2018-01-17 20:00:00 2.7 4 Este 10 Este 0 -- -- 87
2018-01-17 19:00:00 5 4 Este 9 Norte 0 -- -- 82
2018-01-17 18:00:00 10.2 5 Nordeste 10 Norte 0 -- -- 63
2018-01-17 17:00:00 13.9 3 Norte 12 Norte 0 -- -- 47
2018-01-17 16:00:00 12.6 5 Norte 14 Norte 0 -- -- 51
2018-01-17 15:00:00 12.3 7 Norte 18 Norte 0 -- -- 58
2018-01-17 14:00:00 11.7 10 Norte 15 Norte 0 -- -- 58
2018-01-17 13:00:00 11.2 4 Oeste 11 Oeste 0 -- -- 64
2018-01-17 12:00:00 9 6 Oeste 13 Oeste 0 -- -- 76
2018-01-17 11:00:00 7.7 6 Oeste 14 Oeste 0 -- -- 83
2018-01-17 10:00:00 6 9 Oeste 17 Oeste 0 -- -- 94
2018-01-17 09:00:00 6 9 Oeste 18 Oeste 0 -- -- 97
2018-01-17 08:00:00 6.4 7 Sudoeste 17 Oeste 0 -- -- 98
2018-01-17 07:00:00 6.9 7 Oeste 18 Oeste 0 -- -- 96
2018-01-17 06:00:00 7.1 6 Oeste 18 Sudoeste 0 -- -- 96
2018-01-17 05:00:00 7.2 9 Sudoeste 18 Sudoeste 0 -- -- 95
2018-01-17 04:00:00 7.6 8 Oeste 21 Oeste 0 -- -- 94
2018-01-17 03:00:00 7.9 9 Sudoeste 21 Sudoeste 0 -- -- 94
2018-01-17 02:00:00 8.1 11 Oeste 30 Oeste 0 -- -- 94
2018-01-17 01:00:00 8.5 14 Oeste 27 Oeste 0 -- -- 92
2018-01-17 00:00:00 8.6 11 Sudoeste 23 Oeste 0 -- -- 92
2018-01-16 23:00:00 9 10 Oeste 23 Oeste 0 -- -- 91
2018-01-16 22:00:00 9.6 12 Oeste 26 Oeste 0 -- -- 89
2018-01-16 21:00:00 9.9 13 Oeste 22 Sudoeste 0 -- -- 86
2018-01-16 20:00:00 9.9 9 Oeste 25 Sudoeste 0 -- -- 86
2018-01-16 19:00:00 9.9 10 Oeste 27 Sudoeste 0 -- -- 89
2018-01-16 18:00:00 9.7 10 Sudoeste 24 Sudoeste 0 -- -- 91
2018-01-16 17:00:00 9.6 11 Oeste 28 Oeste 0 -- -- 91
2018-01-16 16:00:00 10.1 11 Oeste 30 Oeste 0 -- -- 88
2018-01-16 15:00:00 10.3 19 Oeste 30 Oeste 0 -- -- 85
2018-01-16 14:00:00 9.8 12 Oeste 26 Oeste 0 -- -- 86
2018-01-16 13:00:00 9.3 13 Sudoeste 27 Oeste 0 -- -- 88
2018-01-16 12:00:00 8.6 9 Oeste 26 Sudoeste 0 -- -- 92
2018-01-16 11:00:00 7.4 11 Sudoeste 27 Oeste 0 -- -- 98
2018-01-16 10:00:00 6.5 9 Sudoeste 21 Sudoeste 0 -- -- 99
2018-01-16 09:00:00 6.3 9 Sudoeste 19 Oeste 0 -- -- 96
2018-01-16 08:00:00 6.2 10 Sudoeste 23 Sudoeste 0 -- -- 92
2018-01-16 07:00:00 6.1 10 Sudoeste 19 Sudoeste 0 -- -- 89
2018-01-16 06:00:00 5.7 9 Sudoeste 20 Oeste 0 -- -- 85
2018-01-16 05:00:00 5.4 8 Sudoeste 15 Sudoeste 0 -- -- 84
2018-01-16 04:00:00 5.2 6 Sudoeste 19 Sudoeste 0 -- -- 82
2018-01-16 03:00:00 4.9 8 Sudoeste 24 Sudoeste 0 -- -- 82
2018-01-16 02:00:00 5.4 12 Sudoeste 26 Sudoeste 0 -- -- 79
2018-01-16 01:00:00 5.8 12 Sudoeste 23 Sudoeste 0 -- -- 72
2018-01-16 00:00:00 5.8 11 Sudoeste 26 Sudoeste 0 -- -- 71
2018-01-15 23:00:00 5.7 9 Sudoeste 20 Sudoeste 0 -- -- 72
2018-01-15 22:00:00 5.5 10 Sudoeste 23 Sudoeste 0 -- -- 78
2018-01-15 21:00:00 5.1 6 Sudoeste 12 Sudoeste 0 -- -- 79
2018-01-15 20:00:00 5.6 6 Sudoeste 11 Sur 0 -- -- 75
2018-01-15 19:00:00 5.7 4 Sudoeste 10 Sudoeste 0 -- -- 73
2018-01-15 18:00:00 6.1 5 Sudoeste 13 Sudoeste 0 -- -- 71
2018-01-15 17:00:00 6.7 7 Sudoeste 19 Sudoeste 0 -- -- 67
2018-01-15 16:00:00 7.7 9 Sudoeste 19 Sudoeste 0 -- -- 63
2018-01-15 15:00:00 7.3 9 Sudoeste 18 Sudoeste 0 -- -- 65
2018-01-15 14:00:00 6.2 8 Sudoeste 14 Sur 0 -- -- 72
2018-01-15 13:00:00 4.7 8 Sudoeste 16 Sudoeste 0 -- -- 89
2018-01-15 12:00:00 2.2 0 Calma 4 Este 0.2 -- -- 95
2018-01-15 11:00:00 -1.9 3 Nordeste 4 Este 0 -- -- 100
2018-01-15 10:00:00 -3.1 2 Este 4 Sudeste 0 -- -- 99
2018-01-15 09:00:00 -4.1 3 Sudeste 4 Sudeste 0 -- -- 99
2018-01-15 08:00:00 -4.4 -- -- -- -- 0 -- -- 99
2018-01-15 07:00:00 -3.8 2 Sudeste 3 Sudeste 0 -- -- 98
2018-01-15 06:00:00 -2.9 0 Calma 4 Este 0 -- -- 100
2018-01-15 05:00:00 -4.2 3 Este 6 Este 0 -- -- 99
2018-01-15 04:00:00 -4.6 2 Este 3 Sudeste 0 -- -- 98
2018-01-15 03:00:00 -4.3 0 Calma 2 Sudeste 0 -- -- 100
2018-01-15 02:00:00 -3.4 0 Calma 5 Este 0 -- -- 99
2018-01-15 01:00:00 -3.5 2 Este 4 Este 0 -- -- 100
2018-01-15 00:00:00 -3.1 0 Calma 4 Este 0 -- -- 99
2018-01-14 23:00:00 -3 3 Este 4 Este 0 -- -- 98
2018-01-14 22:00:00 -1.8 0 Calma 6 Oeste 0 -- -- 96
2018-01-14 21:00:00 -0.1 0 Calma 10 Norte 0 -- -- 92
2018-01-14 20:00:00 2 11 Norte 15 Norte 0 -- -- 79
2018-01-14 19:00:00 2.5 9 Norte 12 Norte 0 -- -- 86
2018-01-14 18:00:00 3 5 Noroeste 10 Noroeste 0 -- -- 85
2018-01-14 17:00:00 3.8 6 Noroeste 10 Noroeste 0 -- -- 83
2018-01-14 16:00:00 3.5 5 Sudoeste 11 Oeste 0 -- -- 87
2018-01-14 15:00:00 3.3 6 Oeste 10 Oeste 0 -- -- 85
2018-01-14 14:00:00 3.5 3 Noroeste 11 Noroeste 0 -- -- 81
2018-01-14 13:00:00 2.9 5 Oeste 13 Oeste 0 -- -- 88
2018-01-14 12:00:00 2.3 7 Noroeste 16 Oeste 0 -- -- 91
2018-01-14 11:00:00 2 5 Oeste 10 Oeste 0 -- -- 97
2018-01-14 10:00:00 1.5 5 Oeste 10 Oeste 0 -- -- 99
2018-01-14 09:00:00 1.3 5 Oeste 18 Noroeste 0 -- -- 99
2018-01-14 08:00:00 1.7 10 Oeste 19 Noroeste 0 -- -- 98
2018-01-14 07:00:00 1.7 5 Oeste 12 Oeste 0 -- -- 100
2018-01-14 06:00:00 1.8 4 Oeste 17 Oeste 0 -- -- 99
2018-01-14 05:00:00 1.9 10 Oeste 24 Oeste 0.2 -- -- 99
2018-01-14 04:00:00 1.8 7 Oeste 20 Sudoeste 0.6 -- -- 99
2018-01-14 03:00:00 2.3 7 Sudoeste 14 Sudoeste 0 -- -- 99
2018-01-14 02:00:00 2.4 6 Sudoeste 16 Sudoeste 0 -- -- 99
2018-01-14 01:00:00 2.5 9 Oeste 23 Sudoeste 0 -- -- 99
2018-01-14 00:00:00 2.6 9 Sudoeste 17 Sudoeste 0.2 -- -- 100
2018-01-13 23:00:00 2.7 8 Sudoeste 16 Sudoeste 0 -- -- 100
2018-01-13 22:00:00 1.6 3 Oeste 8 Sudoeste 0 -- -- 100
2018-01-13 21:00:00 1 4 Sudoeste 15 Oeste 0 -- -- 99
2018-01-13 20:00:00 2.1 10 Oeste 26 Oeste 0 -- -- 95
2018-01-13 19:00:00 3.3 12 Oeste 27 Oeste 0 -- -- 100
2018-01-13 18:00:00 2.4 3 Oeste 21 Sudoeste 0.6 -- -- 100
2018-01-13 17:00:00 2.4 9 Sudoeste 22 Sudoeste 1.2 -- -- 98
2018-01-13 16:00:00 2.5 4 Sur 11 Sudeste 0.6 -- -- 98
2018-01-13 15:00:00 2 0 Calma 5 Sudeste 1.2 -- -- 97
2018-01-13 14:00:00 2.1 2 Sudeste 9 Sur 0.6 -- -- 94
2018-01-13 13:00:00 2.8 5 Sur 10 Sur 0.2 -- -- 85
2018-01-13 12:00:00 3.5 0 Calma 5 Nordeste 0 -- -- 80
2018-01-13 11:00:00 1.8 4 Este 11 Este 0 -- -- 90
2018-01-13 10:00:00 1.1 5 Este 10 Este 0 -- -- 96
2018-01-13 09:00:00 -1.3 4 Este 6 Este 0 -- -- 100
2018-01-13 08:00:00 -1.4 6 Este 8 Este 0 -- -- 100
2018-01-13 07:00:00 -2.3 0 Calma 4 Sudeste 0 -- -- 100
2018-01-13 06:00:00 -2.3 0 Calma 3 Sudoeste 0 -- -- 100
2018-01-13 05:00:00 -1.7 0 Calma 5 Este 0 -- -- 100
2018-01-13 04:00:00 -1.8 2 Nordeste 9 Este 0 -- -- 100
2018-01-13 03:00:00 -1.6 6 Este 8 Este 0 -- -- 100
2018-01-13 02:00:00 -1.4 0 Calma 8 Este 0 -- -- 100
2018-01-13 01:00:00 -0.8 0 Calma 4 Este 0 -- -- 99
2018-01-13 00:00:00 -1.4 3 Este 6 Este 0 -- -- 99
2018-01-12 23:00:00 -0.2 5 Este 9 Este 0 -- -- 99
2018-01-12 22:00:00 0.6 5 Este 5 Este 0 -- -- 98
2018-01-12 21:00:00 1.4 2 Este 4 Sudeste 0 -- -- 97
2018-01-12 20:00:00 2 0 Calma 8 Nordeste 0 -- -- 96
2018-01-12 19:00:00 2.7 0 Calma 5 Este 0 -- -- 93
2018-01-12 18:00:00 4.7 2 Sudoeste 12 Oeste 0 -- -- 84
2018-01-12 17:00:00 6.8 8 Oeste 12 Oeste 0 -- -- 73
2018-01-12 16:00:00 6.9 7 Oeste 14 Sudoeste 0 -- -- 72
2018-01-12 15:00:00 8.8 4 Oeste 9 Oeste 0 -- -- 63
2018-01-12 14:00:00 8.3 3 Oeste 10 Oeste 0 -- -- 66
2018-01-12 13:00:00 7.7 2 Sudeste 10 Este 0 -- -- 68
2018-01-12 12:00:00 5.6 3 Este 13 Sur 0 -- -- 80
2018-01-12 11:00:00 2.1 3 Sudeste 8 Sudeste 0 -- -- 93
2018-01-12 10:00:00 0.8 2 Sudeste 10 Sur 0 -- -- 97
2018-01-12 09:00:00 0.4 3 Sudoeste 6 Sudoeste 0 -- -- 98
2018-01-12 08:00:00 0.2 0 Calma 6 Sudoeste 0 -- -- 99
2018-01-12 07:00:00 -0.4 0 Calma 3 Este 0 -- -- 100
2018-01-12 06:00:00 -0.6 0 Calma 3 Oeste 0 -- -- 99
2018-01-12 05:00:00 -1 0 Calma 4 Oeste 0 -- -- 99
2018-01-12 04:00:00 -1.4 0 Calma 5 Oeste 0 -- -- 99
2018-01-12 03:00:00 -2.9 0 Calma 6 Este 0 -- -- 98
2018-01-12 02:00:00 -2 2 Este 9 Este 0 -- -- 98
2018-01-12 01:00:00 -1.9 0 Calma 6 Noroeste 0 -- -- 98
2018-01-12 00:00:00 -0.5 0 Calma 11 Oeste 0 -- -- 95
2018-01-11 23:00:00 2 9 Oeste 15 Oeste 0 -- -- 88
2018-01-11 22:00:00 2 5 Sudoeste 18 Sudoeste 0 -- -- 87
2018-01-11 21:00:00 3.9 9 Oeste 22 Oeste 0 -- -- 80
2018-01-11 20:00:00 3.9 9 Oeste 18 Sudoeste 0 -- -- 81
2018-01-11 19:00:00 3.9 7 Sudoeste 12 Sudoeste 0 -- -- 81
2018-01-11 18:00:00 4.7 7 Oeste 19 Oeste 0 -- -- 74
2018-01-11 17:00:00 6.7 11 Oeste 32 Oeste 0 -- -- 65
2018-01-11 16:00:00 6.1 11 Oeste 31 Oeste 0 -- -- 64
2018-01-11 15:00:00 6.9 21 Oeste 36 Noroeste 0 -- -- 60
2018-01-11 14:00:00 6.1 19 Oeste 32 Oeste 0 -- -- 66
2018-01-11 13:00:00 6.1 17 Oeste 31 Oeste 0 -- -- 69
2018-01-11 12:00:00 5.2 18 Oeste 29 Oeste 0 -- -- 78
2018-01-11 11:00:00 3.6 12 Oeste 25 Oeste 0 -- -- 88
2018-01-11 10:00:00 3.1 16 Oeste 29 Oeste 0 -- -- 88
2018-01-11 09:00:00 2.2 13 Oeste 22 Oeste 0 -- -- 92
2018-01-11 08:00:00 2.1 12 Oeste 27 Oeste 0 -- -- 92
2018-01-11 07:00:00 2.1 10 Oeste 26 Sudoeste 0 -- -- 93
2018-01-11 06:00:00 1.8 11 Oeste 28 Oeste 0 -- -- 93
2018-01-11 05:00:00 2 17 Oeste 34 Oeste 0 -- -- 93
2018-01-11 04:00:00 2.5 14 Oeste 29 Oeste 0 -- -- 92
2018-01-11 03:00:00 2.4 18 Sudoeste 32 Oeste 0 -- -- 92
2018-01-11 02:00:00 1.7 9 Oeste 23 Sudoeste 0 -- -- 95
2018-01-11 01:00:00 1.2 7 Sudoeste 22 Oeste 0 -- -- 99
2018-01-11 00:00:00 0.5 7 Oeste 22 Oeste 0 -- -- 97
2018-01-10 23:00:00 1.5 13 Oeste 21 Oeste 0 -- -- 94
2018-01-10 22:00:00 1 6 Oeste 26 Oeste 0 -- -- 95
2018-01-10 21:00:00 2.4 16 Oeste 28 Oeste 0 -- -- 92
2018-01-10 20:00:00 2.9 13 Oeste 27 Oeste 0 -- -- 94
2018-01-10 19:00:00 2.9 13 Oeste 62 Noroeste 0.6 -- -- 94
2018-01-10 18:00:00 5.4 12 Oeste 36 Sudoeste 0.2 -- -- 89
2018-01-10 17:00:00 5.3 19 Sudoeste 47 Sudoeste 0.2 -- -- 91
2018-01-10 16:00:00 6.3 21 Sudoeste 43 Sudoeste 0 -- -- 82
2018-01-10 15:00:00 5 13 Sudoeste 33 Sudoeste 0 -- -- 89
2018-01-10 14:00:00 5.4 9 Sudoeste 24 Sudoeste 0 -- -- 90
2018-01-10 13:00:00 5.2 8 Sudoeste 20 Sudoeste 0 -- -- 93
2018-01-10 12:00:00 5.6 6 Sudoeste 13 Sudoeste 0 -- -- 94
2018-01-10 11:00:00 4 8 Sudoeste 16 Sudoeste 0 -- -- 99
2018-01-10 10:00:00 2.8 4 Oeste 12 Sudoeste 0 -- -- 100
2018-01-10 09:00:00 2.4 3 Sudoeste 8 Oeste 0 -- -- 100
2018-01-10 08:00:00 2.3 3 Oeste 12 Sudoeste 0 -- -- 100
2018-01-10 07:00:00 2 3 Sudoeste 8 Sudoeste 0 -- -- 100
2018-01-10 06:00:00 1.3 0 Calma 3 Este 0.2 -- -- 100
2018-01-10 05:00:00 0.8 2 Este 3 Sudeste 0 -- -- 100
2018-01-10 04:00:00 1.3 0 Calma 3 Oeste 0 -- -- 100
2018-01-10 03:00:00 2.2 3 Noroeste 7 Noroeste 0 -- -- 100
2018-01-10 02:00:00 1 0 Calma 2 Noroeste 0.2 -- -- 100
2018-01-10 01:00:00 1.2 0 Calma 4 Oeste 0.2 -- -- 100
2018-01-10 00:00:00 1.1 0 Calma 3 Este 0 -- -- 100
2018-01-09 23:00:00 1 2 Este 4 Este 0.2 -- -- 100
2018-01-09 22:00:00 0.9 0 Calma 2 Norte 0.6 -- -- 100
2018-01-09 21:00:00 0.7 0 Calma 5 Este 0.6 -- -- 100
2018-01-09 20:00:00 0.5 0 Calma 4 Sudeste 0.4 -- -- 99
2018-01-09 19:00:00 0.6 2 Nordeste 3 Nordeste 0.4 -- -- 99
2018-01-09 18:00:00 0.7 0 Calma 5 Oeste 0.4 -- -- 97
2018-01-09 17:00:00 1.6 3 Oeste 6 Oeste 0 -- -- 91
2018-01-09 16:00:00 2.1 0 Calma 8 Oeste 0 -- -- 86
2018-01-09 15:00:00 3.2 0 Calma 9 Nordeste 0.2 -- -- 78
2018-01-09 14:00:00 1.7 5 Este 8 Este 0.4 -- -- 86
2018-01-09 13:00:00 0.7 2 Este 3 Norte 0 -- -- 81
2018-01-09 12:00:00 -0.4 2 Norte 6 Este 0 -- -- 82
2018-01-09 11:00:00 -2.6 4 Este 11 Este 0 -- -- 89
2018-01-09 10:00:00 -4.1 5 Este 7 Este 0 -- -- 94
2018-01-09 09:00:00 -5.7 4 Este 8 Este 0 -- -- 95
2018-01-09 08:00:00 -7.5 6 Este 9 Este 0 -- -- 96
2018-01-09 07:00:00 -8.6 4 Este 6 Este 0 -- -- 95
2018-01-09 06:00:00 -8.5 2 Este 5 Este 0 -- -- 94
2018-01-09 05:00:00 -7.5 3 Este 8 Este 0 -- -- 96
2018-01-09 04:00:00 -9.9 4 Este 9 Este 0 -- -- 94
2018-01-09 03:00:00 -9.9 5 Este 9 Este 0 -- -- 94
2018-01-09 02:00:00 -8.7 0 Calma 4 Este 0 -- -- 95
2018-01-09 01:00:00 -8.2 2 Este 6 Este 0 -- -- 96
2018-01-09 00:00:00 -8.5 3 Este 8 Este 0 -- -- 94
2018-01-08 23:00:00 -6.4 2 Nordeste 5 Este 0 -- -- 96
2018-01-08 22:00:00 -5.4 2 Nordeste 2 Nordeste 0 -- -- 99
2018-01-08 21:00:00 -5.9 0 Calma 2 Nordeste 0 -- -- 96
2018-01-08 20:00:00 -5.8 3 Este 3 Este 0 -- -- 95
2018-01-08 19:00:00 -3.4 0 Calma 3 Sudoeste 0 -- -- 94
2018-01-08 18:00:00 0.9 0 Calma 8 Nordeste 0 -- -- 80
2018-01-08 17:00:00 4.2 5 Nordeste 6 Nordeste 0 -- -- 69
2018-01-08 16:00:00 4.2 3 Noroeste 10 Noroeste 0 -- -- 69
2018-01-08 15:00:00 3.3 5 Noroeste 13 Noroeste 0 -- -- 66
2018-01-08 14:00:00 1.6 9 Noroeste 15 Noroeste 0 -- -- 76
2018-01-08 13:00:00 1.1 9 Noroeste 12 Oeste 0 -- -- 76
2018-01-08 12:00:00 3.1 3 Nordeste 5 Nordeste 0 -- -- 66
2018-01-08 11:00:00 0.6 3 Nordeste 8 Este 0 -- -- 69
2018-01-08 10:00:00 -3.5 5 Nordeste 8 Nordeste 0 -- -- 81
2018-01-08 09:00:00 -6.1 4 Nordeste 12 Nordeste 0 -- -- 88
2018-01-08 08:00:00 -5.3 8 Este 23 Norte 0 -- -- 88
2018-01-08 07:00:00 -4.3 18 Norte 22 Norte 0 -- -- 86
2018-01-08 06:00:00 -4.2 3 Este 10 Nordeste 0 -- -- 86
2018-01-08 05:00:00 -4.7 0 Calma -- -- 0 -- -- 88
2018-01-08 04:00:00 -4 0 Calma -- -- 0 -- -- 88
2018-01-08 03:00:00 -3.3 0 Calma -- -- 0 -- -- 81
2018-01-08 02:00:00 -3 0 Calma -- -- 0 -- -- 83
2018-01-08 01:00:00 -1.9 0 Calma 24 Nordeste 0 -- -- 85
2018-01-08 00:00:00 -3 24 Nordeste 30 Nordeste 0 -- -- 89
2018-01-07 23:00:00 -1.4 21 Nordeste 24 Nordeste 0 -- -- 85
2018-01-07 22:00:00 -0.2 14 Nordeste 22 Este 0 -- -- 87
2018-01-07 21:00:00 0.7 14 Sudeste 27 Este 0 -- -- 86
2018-01-07 20:00:00 0 10 Este 25 Nordeste 0 -- -- 91
2018-01-07 19:00:00 0.5 14 Nordeste 22 Nordeste 0 -- -- 92
2018-01-07 18:00:00 1.3 7 Este 28 Este 0 -- -- 94
2018-01-07 17:00:00 1.6 12 Nordeste 17 Nordeste 0 -- -- 95
2018-01-07 16:00:00 1.8 11 Nordeste 21 Nordeste 0 -- -- 95
2018-01-07 15:00:00 1.5 13 Nordeste 18 Nordeste 1.6 -- -- 95
2018-01-07 14:00:00 1.4 14 Nordeste 20 Nordeste 1.6 -- -- 96
2018-01-07 13:00:00 2 15 Nordeste 21 Norte 1.2 -- -- 93
2018-01-07 12:00:00 2.1 13 Nordeste 24 Norte 1.2 -- -- 92
2018-01-07 11:00:00 1.8 11 Norte 27 Norte 1.2 -- -- 93
2018-01-07 10:00:00 1.2 21 Norte 29 Norte 1 -- -- 95
2018-01-07 09:00:00 0.8 11 Norte 17 Norte 0.8 -- -- 99
2018-01-07 08:00:00 0.6 12 Norte 28 Norte 1.2 -- -- 99
2018-01-07 07:00:00 0.7 21 Norte 33 Norte 1.4 -- -- 99
2018-01-07 06:00:00 0.4 0 Calma 0 Calma 0.8 -- -- 100
2018-01-07 05:00:00 0.2 0 Calma 0 Calma 0.8 -- -- 100
2018-01-07 04:00:00 0.4 0 Calma -- -- 1 -- -- 100
2018-01-07 03:00:00 0.3 0 Calma -- -- 1 -- -- 100
2018-01-07 02:00:00 0.2 0 Calma -- -- 0.4 -- -- 100
2018-01-07 01:00:00 0.2 0 Calma -- -- 0.6 -- -- 100
2018-01-07 00:00:00 0.2 0 Calma -- -- 0.6 -- -- 99
2018-01-06 23:00:00 0.6 0 Calma -- -- 0.4 -- -- 97
2018-01-06 22:00:00 0.6 0 Calma -- -- 0.8 -- -- 98
2018-01-06 21:00:00 0.4 0 Calma -- -- 0.8 -- -- 100
2018-01-06 20:00:00 0.3 0 Calma -- -- 0.6 -- -- 100
2018-01-06 19:00:00 0.3 0 Calma 3 Norte 0.6 -- -- 100
2018-01-06 18:00:00 0.2 5 Noroeste 21 Norte 0.4 -- -- 100
2018-01-06 17:00:00 0.2 13 Norte 31 Noroeste 0.2 -- -- 100
2018-01-06 16:00:00 0.3 24 Noroeste 37 Norte 0.6 -- -- 100
2018-01-06 15:00:00 0.5 24 Norte 38 Norte 0.4 -- -- 98
2018-01-06 14:00:00 0.8 24 Norte 36 Norte 0.6 -- -- 97
2018-01-06 13:00:00 1.1 22 Norte 34 Norte 0.6 -- -- 97
2018-01-06 12:00:00 1.4 19 Norte 28 Norte 0.4 -- -- 96
2018-01-06 11:00:00 1.7 17 Norte 28 Nordeste 0.4 -- -- 97
2018-01-06 10:00:00 1.4 18 Norte 26 Norte 0.8 -- -- 98
2018-01-06 09:00:00 2 8 Norte 12 Noroeste 0.4 -- -- 99
2018-01-06 08:00:00 1.8 6 Oeste 9 Oeste 0 -- -- 100
2018-01-06 07:00:00 1.3 3 Oeste 4 Oeste 0 -- -- 100
2018-01-06 06:00:00 1 4 Este 6 Este 0.2 -- -- 99
2018-01-06 05:00:00 1.3 2 Este 2 Este 0.4 -- -- 99
2018-01-06 04:00:00 1.5 0 Calma 4 Sur 0.2 -- -- 99
2018-01-06 03:00:00 1.7 4 Sur 9 Sur 0 -- -- 98
2018-01-06 02:00:00 2.3 6 Sudeste 10 Sudeste 0.6 -- -- 97
2018-01-06 01:00:00 3.1 5 Sudeste 7 Sudeste 1.2 -- -- 98
2018-01-06 00:00:00 3.1 4 Noroeste 12 Norte 2 -- -- 96
2018-01-05 23:00:00 3.8 5 Este 13 Norte 1.4 -- -- 97
2018-01-05 22:00:00 4.4 3 Oeste 16 Oeste 2.8 -- -- 96
2018-01-05 21:00:00 5.4 7 Noroeste 14 Noroeste 1.6 -- -- 96
2018-01-05 20:00:00 5.8 10 Noroeste 18 Noroeste 0.8 -- -- 95
2018-01-05 19:00:00 6.5 7 Oeste 18 Noroeste 2 -- -- 99
2018-01-05 18:00:00 6.8 2 Oeste 7 Oeste 1.2 -- -- 99
2018-01-05 17:00:00 6.9 4 Oeste 8 Noroeste 2.2 -- -- 98
2018-01-05 16:00:00 7.2 3 Oeste 10 Sudoeste 0.2 -- -- 95
2018-01-05 15:00:00 7.7 6 Sudoeste 17 Sudoeste 0.4 -- -- 89
2018-01-05 14:00:00 8.1 7 Sudoeste 36 Oeste 0.2 -- -- 87
2018-01-05 13:00:00 7.8 20 Oeste 48 Sudoeste 0 -- -- 84
2018-01-05 12:00:00 8.8 18 Sudoeste 34 Sudoeste 0 -- -- 80
2018-01-05 11:00:00 9.3 15 Sudoeste 34 Sur 0 -- -- 71
2018-01-05 10:00:00 9.6 14 Sudoeste 32 Sur 0 -- -- 70
2018-01-05 09:00:00 8.4 11 Sur 31 Sur 0 -- -- 75
2018-01-05 08:00:00 8.3 17 Sudoeste 32 Sudoeste 0 -- -- 78
2018-01-05 07:00:00 8.3 18 Sudoeste 30 Sur 0 -- -- 83
2018-01-05 06:00:00 8 10 Sur 23 Sudoeste 0 -- -- 85
2018-01-05 05:00:00 8.2 12 Sudoeste 30 Sudoeste 0 -- -- 84
2018-01-05 04:00:00 8.5 12 Sudoeste 24 Sudoeste 0 -- -- 82
2018-01-05 03:00:00 8.5 10 Sudoeste 28 Sudoeste 0 -- -- 86
2018-01-05 02:00:00 8.9 10 Sudoeste 20 Sudoeste 0 -- -- 82
2018-01-05 01:00:00 9.4 10 Sudoeste 29 Sudoeste 0 -- -- 84
2018-01-05 00:00:00 9.9 10 Sudoeste 22 Sudoeste 0 -- -- 84
2018-01-04 23:00:00 10.2 10 Sudoeste 26 Sudoeste 0 -- -- 79
2018-01-04 22:00:00 10.4 11 Sudoeste 20 Oeste 0 -- -- 81
2018-01-04 21:00:00 10.4 8 Sudoeste 20 Sudoeste 0 -- -- 76
2018-01-04 20:00:00 10.6 9 Sudoeste 19 Sudoeste 0 -- -- 74
2018-01-04 19:00:00 10.6 9 Sudoeste 22 Sudoeste 0 -- -- 75
2018-01-04 18:00:00 10.9 9 Sudoeste 23 Sudoeste 0 -- -- 74
2018-01-04 17:00:00 11.3 10 Sudoeste 28 Sudoeste 0 -- -- 75
2018-01-04 16:00:00 11.6 12 Sudoeste 37 Oeste 0 -- -- 71
2018-01-04 15:00:00 11.2 14 Sudoeste 33 Sudoeste 0 -- -- 77
2018-01-04 14:00:00 11.4 15 Oeste 34 Sudoeste 0 -- -- 75
2018-01-04 13:00:00 11.4 19 Sudoeste 42 Sudoeste 0 -- -- 73
2018-01-04 12:00:00 11.3 15 Sudoeste 36 Sudoeste 0 -- -- 77
2018-01-04 11:00:00 11 15 Sudoeste 28 Sudoeste 0 -- -- 81
2018-01-04 10:00:00 10.6 12 Sudoeste 21 Sur 0 -- -- 86
2018-01-04 09:00:00 10.3 9 Sudoeste 21 Sudoeste 0 -- -- 87
2018-01-04 08:00:00 10.3 8 Sudoeste 15 Sudoeste 0 -- -- 88
2018-01-04 07:00:00 10.3 6 Sudoeste 18 Oeste 0 -- -- 91
2018-01-04 06:00:00 10.6 8 Oeste 16 Oeste 0 -- -- 90
2018-01-04 05:00:00 10.7 5 Oeste 17 Sudoeste 0 -- -- 89
2018-01-04 04:00:00 10.8 9 Oeste 21 Oeste 0 -- -- 89
2018-01-04 03:00:00 10.6 6 Oeste 19 Sudoeste 0 -- -- 90
2018-01-04 02:00:00 10.1 3 Sudoeste 7 Oeste 0 -- -- 94
2018-01-04 01:00:00 10.1 6 Sudoeste 12 Sudoeste 0 -- -- 94
2018-01-04 00:00:00 10 7 Sudoeste 16 Oeste 0 -- -- 95
2018-01-03 23:00:00 10 9 Sudoeste 15 Sudoeste 0 -- -- 96
2018-01-03 22:00:00 7.8 0 Calma 11 Oeste 0 -- -- 98
2018-01-03 21:00:00 9.6 5 Oeste 10 Sudoeste 0 -- -- 97
2018-01-03 20:00:00 11.1 7 Sudoeste 23 Sudoeste 0 -- -- 91
2018-01-03 19:00:00 12 8 Sudoeste 17 Sudoeste 0 -- -- 87
2018-01-03 18:00:00 12.7 9 Sudoeste 27 Oeste 0 -- -- 84
2018-01-03 17:00:00 12.9 18 Oeste 35 Oeste 0 -- -- 83
2018-01-03 16:00:00 13.4 10 Sudoeste 24 Sudoeste 0 -- -- 83
2018-01-03 15:00:00 13.2 18 Oeste 35 Oeste 0 -- -- 83
2018-01-03 14:00:00 13.1 14 Oeste 30 Sudoeste 0 -- -- 83
2018-01-03 13:00:00 12.8 15 Sudoeste 27 Oeste 0 -- -- 87
2018-01-03 12:00:00 11.5 15 Sudoeste 33 Sudoeste 0 -- -- 91
2018-01-03 11:00:00 11.2 15 Sudoeste 27 Sudoeste 0 -- -- 93
2018-01-03 10:00:00 10.8 11 Sudoeste 24 Sudoeste 0 -- -- 94
2018-01-03 09:00:00 10.6 12 Sudoeste 22 Oeste 0 -- -- 95
2018-01-03 08:00:00 10.6 12 Oeste 23 Sudoeste 0 -- -- 95
2018-01-03 07:00:00 10.4 12 Sudoeste 23 Sudoeste 0 -- -- 96
2018-01-03 06:00:00 10.5 13 Sudoeste 25 Oeste 0 -- -- 95
2018-01-03 05:00:00 10.5 8 Sudoeste 25 Sudoeste 0 -- -- 96
2018-01-03 04:00:00 10.5 12 Sudoeste 30 Oeste 0 -- -- 97
2018-01-03 03:00:00 10.5 14 Sudoeste 26 Sudoeste 0 -- -- 97
2018-01-03 02:00:00 10.3 12 Sudoeste 22 Sudoeste 0 -- -- 98
2018-01-03 01:00:00 10.3 9 Sudoeste 19 Sudoeste 0 -- -- 97
2018-01-03 00:00:00 10.1 11 Sudoeste 23 Sudoeste 0 -- -- 98
2018-01-02 23:00:00 10 11 Sudoeste 21 Oeste 0 -- -- 99
2018-01-02 22:00:00 9.7 10 Sudoeste 19 Sudoeste 0 -- -- 100
2018-01-02 21:00:00 9.5 9 Oeste 19 Sudoeste 0.2 -- -- 100
2018-01-02 20:00:00 9.3 10 Oeste 21 Sudoeste 0 -- -- 100
2018-01-02 19:00:00 9.2 12 Sudoeste 23 Sudoeste 0.2 -- -- 99
2018-01-02 18:00:00 9.2 11 Sudoeste 28 Sudoeste 0 -- -- 99
2018-01-02 17:00:00 9.3 11 Sudoeste 25 Sudoeste 0 -- -- 97
2018-01-02 16:00:00 9.7 10 Sudoeste 26 Sudoeste 0 -- -- 92
2018-01-02 15:00:00 9.3 11 Oeste 32 Sudoeste 0 -- -- 92
2018-01-02 14:00:00 8.9 15 Sudoeste 35 Sudoeste 0 -- -- 92
2018-01-02 13:00:00 8.4 17 Sudoeste 36 Sudoeste 0 -- -- 92
2018-01-02 12:00:00 9.1 16 Sudoeste 30 Sudoeste 0 -- -- 86
2018-01-02 11:00:00 8.8 13 Oeste 27 Sudoeste 0 -- -- 85
2018-01-02 10:00:00 6.7 8 Oeste 18 Sudoeste 0 -- -- 90
2018-01-02 09:00:00 6.3 6 Oeste 20 Oeste 0 -- -- 92
2018-01-02 08:00:00 6 12 Oeste 22 Oeste 0 -- -- 93
2018-01-02 07:00:00 5.5 8 Oeste 16 Sudoeste 0 -- -- 93
2018-01-02 06:00:00 5.4 4 Sudoeste 20 Oeste 0 -- -- 92
2018-01-02 05:00:00 6.4 9 Oeste 24 Oeste 0 -- -- 89
2018-01-02 04:00:00 6.4 11 Oeste 21 Oeste 0 -- -- 89
2018-01-02 03:00:00 6.1 13 Oeste 26 Sudoeste 0 -- -- 90
2018-01-02 02:00:00 5.7 12 Oeste 26 Oeste 0 -- -- 93
2018-01-02 01:00:00 5.7 10 Oeste 18 Sudoeste 0 -- -- 93
2018-01-02 00:00:00 6.4 8 Sudoeste 20 Sudoeste 0 -- -- 92
2018-01-01 23:00:00 7.2 10 Sudoeste 24 Sudoeste 0 -- -- 90
2018-01-01 22:00:00 7.7 15 Sudoeste 26 Sudoeste 0 -- -- 89
2018-01-01 21:00:00 7.7 11 Oeste 32 Sudoeste 0 -- -- 90
2018-01-01 20:00:00 8 17 Oeste 36 Oeste 0 -- -- 89
2018-01-01 19:00:00 7.8 17 Sudoeste 35 Sudoeste 0 -- -- 90
2018-01-01 18:00:00 7.3 14 Sudoeste 31 Sudoeste 0 -- -- 92
2018-01-01 17:00:00 6.9 16 Sudoeste 43 Sudoeste 0 -- -- 93
2018-01-01 16:00:00 7.7 22 Sudoeste 48 Sudoeste 0 -- -- 87
2018-01-01 15:00:00 7.4 20 Sudoeste 38 Sudoeste 0 -- -- 81
2018-01-01 14:00:00 7 17 Sudoeste 39 Sudoeste 0 -- -- 78
2018-01-01 13:00:00 6.7 21 Sudoeste 40 Sudoeste 0 -- -- 78
2018-01-01 12:00:00 5.8 9 Sudoeste 22 Oeste 0 -- -- 83
2018-01-01 11:00:00 2.2 0 Calma 10 Noroeste 0.2 -- -- 97
2018-01-01 10:00:00 0.1 3 Sur 8 Oeste 0 -- -- 100
2018-01-01 09:00:00 -2.6 0 Calma 4 Noroeste 0 -- -- 100
2018-01-01 08:00:00 -2.7 0 Calma 5 Oeste 0 -- -- 100
2018-01-01 07:00:00 -1.2 3 Oeste 6 Oeste 0 -- -- 100
2018-01-01 06:00:00 -1.2 3 Oeste 5 Oeste 0 -- -- 100
2018-01-01 05:00:00 -1.4 3 Oeste 5 Oeste 0 -- -- 100
2018-01-01 04:00:00 -2.9 2 Este 10 Este 0 -- -- 100
2018-01-01 03:00:00 -1.9 2 Sudoeste 14 Oeste 0 -- -- 99
2018-01-01 02:00:00 -0.5 8 Oeste 13 Oeste 0 -- -- 100
2018-01-01 01:00:00 -0.7 3 Oeste 5 Oeste 0 -- -- 99
2018-01-01 00:00:00 -0.1 3 Oeste 6 Oeste 0 -- -- 99
2017-12-31 23:00:00 0 3 Oeste 8 Sudoeste 0 -- -- 98
2017-12-31 22:00:00 1.4 4 Oeste 15 Oeste 0 -- -- 94
2017-12-31 21:00:00 3.3 11 Oeste 20 Oeste 0 -- -- 86
2017-12-31 20:00:00 4.6 12 Oeste 41 Oeste 0.2 -- -- 88
2017-12-31 19:00:00 5.6 11 Oeste 23 Sudoeste 0 -- -- 91
2017-12-31 18:00:00 5.6 12 Oeste 30 Oeste 0.2 -- -- 94
2017-12-31 17:00:00 5.7 19 Oeste 71 Oeste 1.8 -- -- 94
2017-12-31 16:00:00 9.5 19 Sudoeste 51 Sudoeste 0.2 -- -- 83
2017-12-31 15:00:00 9.9 19 Sudoeste 45 Sudoeste 0 -- -- 77
2017-12-31 14:00:00 10.8 25 Sudoeste 43 Sudoeste 0 -- -- 67
2017-12-31 13:00:00 9.5 17 Sudoeste 37 Sudoeste 0 -- -- 74
2017-12-31 12:00:00 9.3 19 Sudoeste 36 Sudoeste 0 -- -- 76
2017-12-31 11:00:00 9.4 13 Sudoeste 26 Sudoeste 0 -- -- 77
2017-12-31 10:00:00 7.8 10 Sur 18 Sur 0 -- -- 85
2017-12-31 09:00:00 3.8 0 Calma 3 Oeste 0 -- -- 98
2017-12-31 08:00:00 4.9 2 Oeste 4 Oeste 0 -- -- 97
2017-12-31 07:00:00 5.2 0 Calma 4 Nordeste 0 -- -- 97
2017-12-31 06:00:00 5.7 0 Calma 8 Oeste 0 -- -- 95
2017-12-31 05:00:00 5.2 0 Calma 2 Nordeste 0 -- -- 97
2017-12-31 04:00:00 5.3 0 Calma 8 Este 0 -- -- 97
2017-12-31 03:00:00 4.9 5 Este 8 Este 0 -- -- 97
2017-12-31 02:00:00 5.3 3 Este 6 Este 0 -- -- 97
2017-12-31 01:00:00 4.5 6 Este 9 Este 0 -- -- 98